Time;durP1;ratioP1;P1;durP2;ratioP2;P2;SDS_P1;SDS_P2;PMS_P1;PMS_P2;Temp;Humidity;BMP_temperature;BMP_pressure;BME280_temperature;BME280_humidity;BME280_pressure;Samples;Min_cycle;Max_cycle;Signal;HPM_P1;HPM_P2
2021/03/28 00:01:01;;;;;;;12.90;6.87;;;;;;;5.78;67.61;100879.39;115218;1201;102996;-80
2021/03/28 00:03:40;;;;;;;;;;;;;;;5.76;67.60;100875.95;115259;1208;103199;-80
2021/03/28 00:06:28;;;;;;;11.73;5.60;;;;;;;5.71;67.70;100881.11;115516;1196;103032;-81
2021/03/28 00:09:15;;;;;;;15.57;6.50;;;;;;;5.68;67.62;100882.85;115570;1199;103197;-80
2021/03/28 00:11:58;;;;;;;10.95;5.80;;;;;;;5.63;67.56;100884.59;115792;1197;103110;-80
2021/03/28 00:15:00;;;;;;;12.00;6.10;;;;;;;5.57;67.34;100889.80;115473;1196;103021;-81
2021/03/28 00:17:48;;;;;;;13.17;6.27;;;;;;;5.52;67.64;100888.91;115664;1196;103069;-81
2021/03/28 00:20:16;;;;;;;11.67;5.40;;;;;;;5.46;67.81;100902.73;115480;1198;103017;-80
2021/03/28 00:23:10;;;;;;;10.07;5.47;;;;;;;5.41;67.83;100896.70;115507;1196;103098;-80
2021/03/28 00:25:46;;;;;;;10.67;5.40;;;;;;;5.36;67.76;100890.65;115531;1196;102822;-80
2021/03/28 00:28:29;;;;;;;11.55;6.05;;;;;;;5.32;67.86;100892.38;115680;1199;103018;-81
2021/03/28 00:31:13;;;;;;;9.23;6.03;;;;;;;5.27;67.87;100888.08;115527;1199;101828;-80
2021/03/28 00:33:43;;;;;;;10.45;6.15;;;;;;;5.20;67.97;100894.96;115499;1200;103008;-80
2021/03/28 00:36:16;;;;;;;11.95;6.40;;;;;;;5.12;67.86;100894.11;115488;1198;103047;-80
2021/03/28 00:38:46;;;;;;;11.27;6.57;;;;;;;5.04;68.15;100894.12;115619;1197;103094;-80
2021/03/28 00:41:21;;;;;;;10.93;5.67;;;;;;;4.99;68.26;100897.54;115481;1199;103060;-80
2021/03/28 00:43:57;;;;;;;11.37;6.30;;;;;;;4.97;68.28;100894.09;115439;1199;103120;-80
2021/03/28 00:46:36;;;;;;;10.67;6.37;;;;;;;4.94;68.33;100892.38;115549;1196;103797;-81
2021/03/28 00:49:31;;;;;;;9.90;5.93;;;;;;;4.93;68.40;100894.95;115528;1199;102989;-80
2021/03/28 00:52:04;;;;;;;11.07;7.07;;;;;;;4.93;68.43;100879.45;115571;1196;103005;-80
2021/03/28 00:54:46;;;;;;;11.75;6.50;;;;;;;4.94;68.63;100884.62;115513;1196;103363;-80
2021/03/28 00:57:26;;;;;;;9.27;5.77;;;;;;;4.93;68.55;100885.48;115577;1196;103018;-81
2021/03/28 01:00:20;;;;;;;10.35;6.25;;;;;;;4.94;68.61;100888.92;115581;1198;101999;-81
2021/03/28 01:03:10;;;;;;;12.83;7.03;;;;;;;4.93;68.70;100882.03;115505;1198;103127;-81
2021/03/28 01:05:49;;;;;;;10.93;6.20;;;;;;;4.90;68.49;100888.06;115509;1199;103130;-80
2021/03/28 01:08:30;;;;;;;11.03;6.53;;;;;;;4.87;68.88;100889.80;115524;1196;103028;-80
2021/03/28 01:11:32;;;;;;;14.60;6.90;;;;;;;4.83;68.83;100887.17;115538;1196;103019;-80
2021/03/28 01:14:22;;;;;;;13.23;6.63;;;;;;;4.83;68.84;100887.17;115623;1199;101532;-80
2021/03/28 01:17:15;;;;;;;12.60;6.70;;;;;;;4.80;68.77;100887.17;115534;1196;103143;-80
2021/03/28 01:20:19;;;;;;;15.07;6.60;;;;;;;4.76;69.03;100890.63;115564;1196;103047;-80
2021/03/28 01:23:32;;;;;;;14.80;7.53;;;;;;;4.72;69.12;100888.91;115538;1199;102890;-80
2021/03/28 01:26:41;;;;;;;11.25;6.80;;;;;;;4.70;69.17;100890.63;115477;1198;101804;-80
2021/03/28 01:29:30;;;;;;;11.10;6.23;;;;;;;4.64;69.30;100889.73;115239;1202;103047;-81
2021/03/28 01:32:39;;;;;;;14.33;7.50;;;;;;;4.57;69.31;100891.45;115192;1202;103426;-80
2021/03/28 01:35:12;;;;;;;12.35;7.75;;;;;;;4.52;69.45;100898.33;115076;1206;104627;-80
2021/03/28 01:37:46;;;;;;;11.55;7.25;;;;;;;4.46;69.39;100891.41;115091;1206;103226;-80
2021/03/28 01:40:29;;;;;;;12.90;7.05;;;;;;;4.42;69.49;100893.98;115092;1206;103194;-80
2021/03/28 01:43:11;;;;;;;12.35;7.25;;;;;;;4.39;69.76;100899.14;115103;1206;103285;-80
2021/03/28 01:45:44;;;;;;;15.10;7.80;;;;;;;4.34;69.82;100906.02;115101;1206;103200;-80
2021/03/28 01:48:25;;;;;;;14.20;7.55;;;;;;;4.33;69.90;100907.73;115078;1204;103002;-80
2021/03/28 01:50:55;;;;;;;11.50;6.80;;;;;;;4.33;69.79;100912.91;115099;1205;102951;-80
2021/03/28 01:53:36;;;;;;;14.60;7.80;;;;;;;4.33;69.98;100915.48;115161;1205;103136;-81
2021/03/28 01:56:10;;;;;;;12.35;6.50;;;;;;;4.36;70.12;100922.38;115109;1205;101615;-80
2021/03/28 01:59:02;;;;;;;12.80;7.07;;;;;;;4.39;69.99;100919.80;115145;1205;103053;-80
2021/03/28 02:01:43;;;;;;;9.57;6.17;;;;;;;4.41;70.10;100923.25;115115;1206;103166;-81
2021/03/28 02:04:16;;;;;;;11.70;6.30;;;;;;;4.42;70.06;100923.25;115081;1204;103036;-80
2021/03/28 02:06:48;;;;;;;11.53;6.80;;;;;;;4.45;69.91;100925.84;115154;1202;103043;-80
2021/03/28 02:09:40;;;;;;;11.30;6.97;;;;;;;4.48;69.94;100925.84;115215;1203;103232;-80
2021/03/28 02:12:39;;;;;;;11.73;6.77;;;;;;;4.51;69.71;100931.05;115432;1200;103200;-79
2021/03/28 02:15:46;;;;;;;12.57;6.97;;;;;;;4.50;69.86;100929.33;115586;1199;103079;-80
2021/03/28 02:18:17;;;;;;;10.10;6.30;;;;;;;4.46;69.44;100930.14;115586;1196;103108;-80
2021/03/28 02:20:52;;;;;;;9.97;6.10;;;;;;;4.44;69.51;100931.86;115542;1196;102514;-79
2021/03/28 02:23:38;;;;;;;12.30;5.87;;;;;;;4.44;69.55;100931.86;115809;1196;102982;-80
2021/03/28 02:26:31;;;;;;;11.53;5.90;;;;;;;4.42;69.30;100935.30;115495;1196;103117;-80
2021/03/28 02:29:13;;;;;;;9.60;5.80;;;;;;;4.40;69.06;100937.02;115452;1196;103149;-80
2021/03/28 02:32:02;;;;;;;10.90;5.90;;;;;;;4.36;69.13;100936.16;115502;1197;103014;-80
2021/03/28 02:34:50;;;;;;;8.70;5.33;;;;;;;4.31;69.04;100935.28;115596;1199;103008;-80
2021/03/28 02:37:28;;;;;;;9.87;5.37;;;;;;;4.24;69.12;100942.11;115478;1199;103150;-80
2021/03/28 02:40:20;;;;;;;10.60;5.60;;;;;;;4.17;68.95;100945.53;115472;1199;104470;-80
2021/03/28 02:43:26;;;;;;;10.50;5.53;;;;;;;4.10;69.27;100943.75;115507;1199;103041;-80
2021/03/28 02:46:17;;;;;;;10.23;6.00;;;;;;;4.02;69.29;100944.58;115372;1200;103175;-80
2021/03/28 02:49:03;;;;;;;10.27;6.10;;;;;;;3.93;69.28;100946.23;115420;1200;103072;-80
2021/03/28 02:51:53;;;;;;;9.10;5.87;;;;;;;3.87;69.32;100945.34;115357;1200;103200;-80
2021/03/28 02:54:51;;;;;;;12.23;5.63;;;;;;;3.80;69.38;100949.62;115173;1202;103043;-80
2021/03/28 02:57:44;;;;;;;8.40;5.60;;;;;;;3.75;69.47;100955.58;115390;1200;103126;-80
2021/03/28 03:00:19;;;;;;;10.00;5.53;;;;;;;3.70;69.55;100955.55;115276;1199;103152;-80
2021/03/28 03:03:05;;;;;;;9.07;5.63;;;;;;;3.64;69.54;100953.80;115422;1200;103117;-80
2021/03/28 03:06:02;;;;;;;9.50;5.97;;;;;;;3.59;69.59;100950.34;115438;1200;103149;-80
2021/03/28 03:08:37;;;;;;;9.65;5.80;;;;;;;3.54;69.82;100957.16;115408;1200;103011;-80
2021/03/28 03:11:09;;;;;;;13.40;6.50;;;;;;;3.50;69.92;100962.28;115454;1200;103081;-80
2021/03/28 03:14:20;;;;;;;11.25;6.10;;;;;;;3.47;69.97;100973.44;115454;1200;103625;-80
2021/03/28 03:16:50;;;;;;;9.90;5.50;;;;;;;3.43;70.10;100979.43;115510;1200;103459;-80
2021/03/28 03:19:55;;;;;;;12.05;6.70;;;;;;;3.40;70.11;100978.52;115428;1200;103015;-80
2021/03/28 03:22:59;;;;;;;13.47;6.97;;;;;;;3.35;70.50;100988.80;115473;1198;103126;-81
2021/03/28 03:25:54;;;;;;;13.80;6.83;;;;;;;3.33;70.23;100977.61;115560;1196;101174;-80
2021/03/28 03:28:43;;;;;;;12.90;6.70;;;;;;;3.33;70.39;100977.61;115784;1196;103127;-81
2021/03/28 03:31:41;;;;;;;13.73;7.43;;;;;;;3.31;70.38;100979.31;115831;1196;101231;-80
2021/03/28 03:34:41;;;;;;;12.67;7.00;;;;;;;3.23;70.48;100986.98;115708;1196;103005;-80
2021/03/28 03:37:20;;;;;;;13.80;6.75;;;;;;;3.18;70.45;100995.50;115598;1199;103139;-80
2021/03/28 03:40:05;;;;;;;12.30;7.20;;;;;;;3.15;70.48;101008.37;115569;1196;103037;-80
2021/03/28 03:43:10;;;;;;;15.17;7.40;;;;;;;3.09;70.64;101005.73;115822;1196;103123;-80
2021/03/28 03:46:01;;;;;;;10.97;6.77;;;;;;;3.04;70.65;101006.53;115749;1196;102921;-80
2021/03/28 03:48:56;;;;;;;14.07;7.40;;;;;;;3.00;70.84;101011.64;115818;1196;103063;-81
2021/03/28 03:51:47;;;;;;;13.27;7.10;;;;;;;2.96;71.33;101018.48;115535;1200;103022;-80
2021/03/28 03:54:33;;;;;;;14.53;7.60;;;;;;;2.96;70.90;101015.04;115530;1199;103449;-80
2021/03/28 03:57:19;;;;;;;13.25;6.95;;;;;;;2.96;71.31;101023.63;115469;1198;103737;-80
2021/03/28 03:59:51;;;;;;;11.83;7.03;;;;;;;2.96;71.07;101031.36;115608;1197;103137;-80
2021/03/28 04:02:42;;;;;;;12.20;7.60;;;;;;;2.97;71.09;101029.65;115625;1199;101864;-80
2021/03/28 04:05:21;;;;;;;14.33;6.77;;;;;;;2.99;71.51;101035.69;115456;1199;103158;-80
2021/03/28 04:08:03;;;;;;;13.93;7.43;;;;;;;3.00;71.30;101035.70;115473;1198;103047;-80
2021/03/28 04:10:49;;;;;;;12.43;7.37;;;;;;;3.02;71.45;101040.86;115588;1199;102816;-80
2021/03/28 04:13:16;;;;;;;12.57;7.47;;;;;;;3.03;71.56;101046.03;115528;1199;102985;-80
2021/03/28 04:16:18;;;;;;;13.47;7.60;;;;;;;3.03;71.25;101058.92;115554;1198;102996;-81
2021/03/28 04:19:03;;;;;;;10.80;6.93;;;;;;;3.02;71.47;101061.48;115521;1199;103078;-80
2021/03/28 04:22:04;;;;;;;12.43;7.53;;;;;;;3.01;71.31;101067.48;115786;1195;103028;-81
2021/03/28 04:25:22;;;;;;;13.20;7.73;;;;;;;3.01;71.47;101072.64;115734;1198;103197;-80
2021/03/28 04:28:14;;;;;;;15.40;8.27;;;;;;;3.06;71.63;101064.98;115225;1202;103014;-80
2021/03/28 04:30:57;;;;;;;12.83;7.37;;;;;;;3.09;71.57;101070.17;115427;1202;103210;-80
2021/03/28 04:33:54;;;;;;;11.95;7.30;;;;;;;3.11;71.47;101077.06;115424;1202;101689;-80
2021/03/28 04:36:44;;;;;;;14.10;7.85;;;;;;;3.17;71.31;101084.00;115223;1200;103207;-80
2021/03/28 04:39:38;;;;;;;12.40;7.53;;;;;;;3.19;71.36;101087.45;115434;1200;103054;-80
2021/03/28 04:42:27;;;;;;;12.70;7.30;;;;;;;3.21;71.40;101090.91;115294;1202;103359;-80
2021/03/28 04:45:33;;;;;;;12.07;7.00;;;;;;;3.23;71.38;101095.27;115377;1200;102016;-81
2021/03/28 04:48:36;;;;;;;13.30;7.30;;;;;;;3.29;71.10;101091.88;115248;1202;103188;-80
2021/03/28 04:51:27;;;;;;;16.67;7.90;;;;;;;3.31;71.11;101092.75;115259;1202;102995;-80
2021/03/28 04:54:16;;;;;;;13.63;7.87;;;;;;;3.32;71.16;101094.48;115195;1202;103178;-80
2021/03/28 04:56:52;;;;;;;12.57;7.07;;;;;;;3.34;70.81;101093.64;115364;1202;103185;-81
2021/03/28 05:00:11;;;;;;;12.15;7.40;;;;;;;3.34;70.84;101092.78;115459;1199;101475;-80
2021/03/28 05:03:08;;;;;;;11.87;7.30;;;;;;;3.38;70.96;101099.69;115113;1202;102854;-80
2021/03/28 05:05:57;;;;;;;13.98;7.28;;;;;;;3.39;70.80;101096.27;115407;1203;102819;-80
2021/03/28 05:09:05;;;;;;;11.47;7.47;;;;;;;3.43;70.95;101098.05;115395;1202;102954;-80
2021/03/28 05:11:51;;;;;;;14.60;7.88;;;;;;;3.46;70.95;101100.66;115403;1202;101565;-80
2021/03/28 05:14:37;;;;;;;11.50;7.30;;;;;;;3.50;70.92;101111.86;115445;1202;101829;-80
2021/03/28 05:17:19;;;;;;;11.70;7.10;;;;;;;3.53;70.65;101098.99;115269;1201;103011;-81
2021/03/28 05:20:28;;;;;;;10.75;7.20;;;;;;;3.54;70.73;101114.48;115460;1201;102996;-80
2021/03/28 05:22:54;;;;;;;;;;;;;;;3.57;70.64;101111.06;115170;1210;102945;-80
2021/03/28 05:25:40;;;;;;;11.40;7.45;;;;;;;3.59;70.62;101115.42;115111;1205;102989;-80
2021/03/28 05:28:32;;;;;;;12.80;7.20;;;;;;;3.64;70.52;101123.19;115111;1203;103210;-80
2021/03/28 05:31:37;;;;;;;14.50;7.70;;;;;;;3.68;70.50;101124.08;115138;1203;103028;-81
2021/03/28 05:34:23;;;;;;;10.70;7.35;;;;;;;3.72;70.55;101128.41;115256;1201;103117;-80
2021/03/28 05:37:01;;;;;;;11.65;7.40;;;;;;;3.74;70.30;101124.13;115432;1202;103184;-80
2021/03/28 05:40:08;;;;;;;15.17;8.20;;;;;;;3.78;70.32;101137.10;115283;1202;103005;-80
2021/03/28 05:43:32;;;;;;;11.95;7.60;;;;;;;3.80;70.32;101140.56;115288;1202;103110;-80
2021/03/28 05:46:05;;;;;;;15.10;7.90;;;;;;;3.83;70.19;101142.30;115194;1203;103015;-81
2021/03/28 05:48:46;;;;;;;11.20;6.90;;;;;;;3.83;70.25;101145.74;115218;1202;103099;-80
2021/03/28 05:51:42;;;;;;;10.45;6.90;;;;;;;3.85;70.12;101144.04;115191;1203;103050;-80
2021/03/28 05:54:46;;;;;;;11.20;6.90;;;;;;;3.90;70.22;101146.66;114983;1206;103135;-80
2021/03/28 05:57:48;;;;;;;10.70;7.00;;;;;;;3.94;70.17;101149.27;114988;1206;103207;-80
2021/03/28 06:00:37;;;;;;;10.05;6.60;;;;;;;4.00;69.95;101151.06;115006;1206;103163;-80
2021/03/28 06:03:54;;;;;;;13.10;6.90;;;;;;;4.04;69.78;101150.23;115067;1206;103230;-81
2021/03/28 06:06:58;;;;;;;10.10;6.23;;;;;;;4.06;69.81;101158.85;115091;1203;103162;-81
2021/03/28 06:09:49;;;;;;;10.20;6.90;;;;;;;4.07;69.76;101168.33;115057;1206;103232;-81
2021/03/28 06:12:47;;;;;;;13.40;7.30;;;;;;;4.08;69.86;101166.61;115013;1206;103027;-79
2021/03/28 06:15:51;;;;;;;11.70;6.80;;;;;;;4.07;69.64;101170.05;115009;1205;103409;-80
2021/03/28 06:18:26;;;;;;;12.50;7.80;;;;;;;4.03;69.53;101169.16;115012;1205;103069;-80
2021/03/28 06:21:30;;;;;;;11.07;6.87;;;;;;;4.03;69.77;101170.88;115163;1202;102832;-81
2021/03/28 06:24:11;;;;;;;10.20;6.70;;;;;;;4.05;69.70;101175.19;115216;1202;103270;-80
2021/03/28 06:27:16;;;;;;;12.75;7.00;;;;;;;4.06;69.67;101179.50;115218;1203;103069;-80
2021/03/28 06:30:08;;;;;;;10.05;6.55;;;;;;;4.08;69.78;101176.94;115341;1202;103297;-80
2021/03/28 06:32:57;;;;;;;10.87;6.90;;;;;;;4.07;69.53;101188.98;115463;1199;103085;-80
2021/03/28 06:36:17;;;;;;;10.40;6.60;;;;;;;4.07;69.85;101188.98;115671;1196;102909;-80
2021/03/28 06:39:08;;;;;;;10.67;6.77;;;;;;;4.06;69.76;101179.50;115483;1199;103909;-80
2021/03/28 06:41:52;;;;;;;14.20;7.07;;;;;;;4.05;69.46;101198.42;115421;1199;103101;-81
2021/03/28 06:44:29;;;;;;;12.53;6.90;;;;;;;4.03;69.62;101200.13;115728;1196;103156;-80
2021/03/28 06:46:56;;;;;;;;;;;;;;;4.02;69.86;101198.41;115753;1204;103113;-80
2021/03/28 06:49:50;;;;;;;11.93;6.53;;;;;;;4.03;69.58;101189.80;115709;1199;103482;-80
2021/03/28 06:52:26;;;;;;;12.53;6.50;;;;;;;4.07;69.91;101201.88;115501;1197;103448;-80
2021/03/28 06:55:28;;;;;;;12.13;7.20;;;;;;;4.14;70.16;101206.27;115620;1196;103078;-80
2021/03/28 06:58:31;;;;;;;11.87;6.90;;;;;;;4.28;70.20;101202.93;115690;1198;103232;-81
2021/03/28 07:01:16;;;;;;;11.63;7.07;;;;;;;4.42;70.09;101209.08;115473;1199;103056;-81
2021/03/28 07:04:21;;;;;;;15.40;7.20;;;;;;;4.54;70.16;101193.69;115556;1196;103181;-80
2021/03/28 07:06:58;;;;;;;11.33;6.83;;;;;;;4.78;69.90;101193.85;115730;1199;103039;-81
2021/03/28 07:09:52;;;;;;;8.80;6.28;;;;;;;4.90;69.45;101192.21;115705;1199;103031;-80
2021/03/28 07:12:25;;;;;;;13.87;7.03;;;;;;;4.98;69.74;101198.28;115473;1196;103005;-80
2021/03/28 07:15:11;;;;;;;11.90;7.20;;;;;;;5.10;69.46;101206.98;115691;1199;103216;-80
2021/03/28 07:17:47;;;;;;;9.70;6.77;;;;;;;5.30;69.06;101209.66;115649;1198;103053;-81
2021/03/28 07:20:49;;;;;;;15.33;7.65;;;;;;;5.84;68.45;101195.19;115686;1197;103002;-80
2021/03/28 07:23:46;;;;;;;12.23;7.30;;;;;;;6.30;66.69;101192.71;115445;1199;102989;-81
2021/03/28 07:26:51;;;;;;;12.47;6.80;;;;;;;6.53;65.89;101198.75;115457;1199;103216;-82
2021/03/28 07:29:46;;;;;;;10.20;6.80;;;;;;;7.02;66.11;101221.17;115733;1199;103024;-81
2021/03/28 07:32:49;;;;;;;12.97;6.23;;;;;;;7.96;64.58;101206.94;115690;1200;102983;-81
2021/03/28 07:35:54;;;;;;;8.47;5.87;;;;;;;8.48;62.69;101204.86;115565;1198;103150;-81
2021/03/28 07:38:59;;;;;;;10.97;6.70;;;;;;;9.35;62.19;101214.41;115504;1199;103076;-81
2021/03/28 07:42:04;;;;;;;12.07;7.07;;;;;;;11.06;59.54;101217.04;115470;1199;103107;-81
2021/03/28 07:45:19;;;;;;;9.73;6.27;;;;;;;12.79;56.75;101203.63;115523;1199;103990;-81
2021/03/28 07:47:55;;;;;;;7.40;5.20;;;;;;;14.17;53.30;101204.00;115340;1202;103184;-82
2021/03/28 07:50:41;;;;;;;9.20;5.30;;;;;;;14.89;50.85;101207.75;115422;1201;103021;-82
2021/03/28 07:53:41;;;;;;;10.43;5.70;;;;;;;14.29;49.60;101208.87;115398;1202;103123;-81
2021/03/28 07:56:25;;;;;;;9.37;5.63;;;;;;;13.23;49.46;101218.17;115214;1202;103021;-81
2021/03/28 07:59:32;;;;;;;8.50;5.35;;;;;;;12.42;50.68;101227.24;115325;1201;102890;-82
2021/03/28 08:02:08;;;;;;;8.83;5.70;;;;;;;11.69;50.74;101224.50;115412;1200;102967;-81
2021/03/28 08:05:13;;;;;;;9.00;5.90;;;;;;;11.19;51.91;101222.01;115424;1203;103057;-81
2021/03/28 08:07:50;;;;;;;9.05;5.75;;;;;;;10.58;52.27;101232.66;115189;1202;101613;-81
2021/03/28 08:10:17;;;;;;;;;;;;;;;10.04;52.75;101229.12;115274;1207;102989;-81
2021/03/28 08:13:12;;;;;;;9.40;6.33;;;;;;;9.74;54.03;101233.88;115377;1202;103095;-80
2021/03/28 08:16:08;;;;;;;11.97;5.93;;;;;;;9.51;54.77;101239.35;115505;1202;103067;-80
2021/03/28 08:18:56;;;;;;;10.18;5.68;;;;;;;9.33;54.58;101239.56;115144;1203;103012;-81
2021/03/28 08:21:40;;;;;;;10.15;5.70;;;;;;;9.50;54.80;101241.98;115178;1202;103107;-82
2021/03/28 08:24:43;;;;;;;8.40;5.50;;;;;;;10.12;53.56;101237.70;115065;1202;102000;-80
2021/03/28 08:27:51;;;;;;;14.63;6.10;;;;;;;10.09;53.08;101238.61;115239;1202;103171;-81
2021/03/28 08:30:46;;;;;;;9.03;5.43;;;;;;;10.69;52.13;101235.10;115171;1202;103047;-81
2021/03/28 08:33:47;;;;;;;6.95;4.60;;;;;;;12.04;52.04;101235.09;115063;1203;103104;-78
2021/03/28 08:36:52;;;;;;;8.97;5.00;;;;;;;12.58;50.05;101242.54;115064;1203;103066;-80
2021/03/28 08:40:00;;;;;;;8.70;5.20;;;;;;;12.06;49.24;101243.75;115191;1201;103008;-85
2021/03/28 08:43:11;;;;;;;7.43;5.10;;;;;;;11.45;50.01;101251.97;115229;1203;102944;-80
2021/03/28 08:46:16;;;;;;;8.13;5.13;;;;;;;10.80;50.22;101254.92;115247;1201;103020;-80
2021/03/28 08:48:54;;;;;;;9.00;5.50;;;;;;;10.27;50.96;101245.34;115211;1202;103129;-81
2021/03/28 08:51:58;;;;;;;7.87;4.93;;;;;;;10.16;51.43;101249.80;115242;1202;102103;-80
2021/03/28 08:54:41;;;;;;;9.23;5.77;;;;;;;9.88;52.21;101254.55;114983;1205;103152;-79
2021/03/28 08:57:36;;;;;;;9.30;5.40;;;;;;;9.58;52.02;101261.00;115172;1202;103091;-80
2021/03/28 09:00:21;;;;;;;8.47;5.97;;;;;;;9.34;52.59;101263.02;115139;1201;103050;-80
2021/03/28 09:03:10;;;;;;;8.00;5.75;;;;;;;9.20;52.88;101264.03;115243;1201;103008;-79
2021/03/28 09:05:52;;;;;;;8.45;5.10;;;;;;;8.88;53.27;101257.39;115097;1202;103444;-79
2021/03/28 09:08:34;;;;;;;8.85;6.05;;;;;;;8.54;53.94;101261.14;115046;1202;102848;-80
2021/03/28 09:11:27;;;;;;;9.90;6.00;;;;;;;8.28;54.52;101269.97;115232;1203;103254;-78
2021/03/28 09:14:18;;;;;;;10.43;6.70;;;;;;;8.03;54.90;101273.56;115053;1202;103111;-79
2021/03/28 09:17:30;;;;;;;11.07;6.47;;;;;;;7.76;55.62;101275.44;115125;1202;103060;-79
2021/03/28 09:20:39;;;;;;;9.90;6.90;;;;;;;7.56;56.43;101277.25;115125;1202;103565;-80
2021/03/28 09:23:16;;;;;;;13.30;7.00;;;;;;;7.50;56.91;101282.44;115250;1202;103184;-79
2021/03/28 09:26:05;;;;;;;12.00;7.00;;;;;;;7.53;57.17;101272.03;115293;1202;103012;-80
2021/03/28 09:29:00;;;;;;;9.33;6.57;;;;;;;7.60;57.54;101283.28;115176;1201;103303;-80
2021/03/28 09:31:42;;;;;;;11.00;7.30;;;;;;;7.90;57.44;101283.17;115299;1198;103456;-79
2021/03/28 09:34:46;;;;;;;14.70;8.70;;;;;;;7.95;57.49;101286.60;115443;1200;103079;-80
2021/03/28 09:37:23;;;;;;;11.87;7.30;;;;;;;7.94;57.27;101289.21;115580;1199;103099;-79
2021/03/28 09:40:11;;;;;;;11.30;6.90;;;;;;;7.89;56.98;101286.61;115621;1196;103009;-79
2021/03/28 09:43:20;;;;;;;12.80;8.00;;;;;;;7.78;57.13;101284.08;115430;1199;102998;-80
2021/03/28 09:46:09;;;;;;;12.17;7.47;;;;;;;7.73;57.80;101285.84;115411;1198;103158;-80
2021/03/28 09:49:00;;;;;;;12.53;7.83;;;;;;;7.91;57.70;101287.49;115671;1196;103203;-79
2021/03/28 09:51:48;;;;;;;12.55;8.10;;;;;;;8.26;57.41;101276.91;115413;1196;103078;-79
2021/03/28 09:54:18;;;;;;;14.37;8.00;;;;;;;8.63;56.71;101271.48;115497;1199;102992;-79
2021/03/28 09:57:08;;;;;;;12.17;7.80;;;;;;;9.04;56.77;101282.39;115397;1199;103040;-79
2021/03/28 09:59:55;;;;;;;15.87;7.50;;;;;;;9.40;55.30;101262.07;115422;1196;101440;-80
2021/03/28 10:02:39;;;;;;;12.55;8.40;;;;;;;9.37;54.90;101289.01;115524;1199;103188;-80
2021/03/28 10:05:13;;;;;;;13.40;8.13;;;;;;;9.22;54.72;101270.94;115388;1197;102982;-80
2021/03/28 10:07:54;;;;;;;11.63;7.00;;;;;;;9.07;54.73;101277.16;115716;1196;103008;-79
2021/03/28 10:10:41;;;;;;;10.10;7.10;;;;;;;9.07;55.05;101276.29;115653;1196;103072;-80
2021/03/28 10:13:20;;;;;;;12.30;7.00;;;;;;;9.33;54.66;101270.81;115817;1196;103479;-80
2021/03/28 10:15:56;;;;;;;12.30;7.17;;;;;;;9.96;55.02;101283.97;115880;1196;103102;-80
2021/03/28 10:18:48;;;;;;;14.43;7.18;;;;;;;10.16;53.46;101281.09;115424;1200;103069;-80
2021/03/28 10:21:27;;;;;;;12.90;7.10;;;;;;;10.12;52.96;101280.27;115415;1196;103146;-79
2021/03/28 10:24:04;;;;;;;11.10;6.23;;;;;;;10.35;52.47;101271.28;115418;1199;103098;-80
2021/03/28 10:27:03;;;;;;;13.18;7.10;;;;;;;10.76;52.64;101275.84;115594;1196;103003;-79
2021/03/28 10:30:08;;;;;;;10.17;6.70;;;;;;;11.27;51.48;101271.47;115687;1196;103142;-80
2021/03/28 10:33:07;;;;;;;11.40;7.20;;;;;;;11.35;50.21;101273.95;115549;1199;103139;-79
2021/03/28 10:36:04;;;;;;;10.63;6.90;;;;;;;11.05;49.70;101286.67;115789;1196;103012;-81
2021/03/28 10:39:11;;;;;;;11.38;6.60;;;;;;;10.97;50.21;101267.68;115607;1197;103015;-81
2021/03/28 10:42:02;;;;;;;11.57;6.87;;;;;;;10.86;49.79;101273.08;115619;1196;102995;-81
2021/03/28 10:44:48;;;;;;;11.60;6.80;;;;;;;10.79;50.20;101274.08;115548;1200;102996;-80
2021/03/28 10:47:28;;;;;;;8.70;6.37;;;;;;;11.30;50.98;101281.84;115540;1199;103156;-79
2021/03/28 10:50:04;;;;;;;11.17;7.47;;;;;;;12.17;50.88;101280.11;115673;1196;102803;-79
2021/03/28 10:52:49;;;;;;;10.30;6.47;;;;;;;12.64;48.49;101268.55;115603;1196;102919;-79
2021/03/28 10:55:36;;;;;;;11.60;6.70;;;;;;;12.61;48.65;101284.33;115455;1196;103005;-80
2021/03/28 10:58:46;;;;;;;9.75;6.85;;;;;;;12.97;47.99;101277.32;115587;1196;103115;-80
2021/03/28 11:01:51;;;;;;;10.35;6.30;;;;;;;13.25;48.06;101279.23;115378;1202;103162;-81
2021/03/28 11:04:47;;;;;;;10.90;6.20;;;;;;;13.20;46.55;101274.13;115251;1202;103197;-80
2021/03/28 11:07:48;;;;;;;9.93;6.50;;;;;;;13.17;46.75;101284.66;115276;1202;103575;-81
2021/03/28 11:10:32;;;;;;;7.97;5.80;;;;;;;13.75;47.02;101283.08;115323;1201;103139;-80
2021/03/28 11:13:00;;;;;;;9.33;5.90;;;;;;;14.10;44.46;101270.70;115308;1201;103123;-80
2021/03/28 11:15:45;;;;;;;8.50;5.80;;;;;;;14.15;44.19;101287.14;115424;1201;103229;-80
2021/03/28 11:18:29;;;;;;;9.70;5.90;;;;;;;13.76;43.22;101284.80;115320;1203;102986;-80
2021/03/28 11:20:59;;;;;;;9.87;5.40;;;;;;;13.20;44.14;101289.84;115416;1202;104493;-80
2021/03/28 11:23:44;;;;;;;6.95;5.10;;;;;;;13.08;45.12;101297.98;115293;1202;103085;-81
2021/03/28 11:26:34;;;;;;;11.00;5.20;;;;;;;13.25;44.55;101281.86;115308;1203;103101;-80
2021/03/28 11:29:01;;;;;;;8.47;5.10;;;;;;;13.15;44.08;101280.37;115229;1203;103400;-80
2021/03/28 11:31:36;;;;;;;9.35;5.23;;;;;;;13.27;44.30;101286.16;115459;1202;103245;-80
2021/03/28 11:34:26;;;;;;;9.37;5.20;;;;;;;13.30;44.13;101285.23;115426;1203;103107;-80
2021/03/28 11:36:56;;;;;;;10.15;4.75;;;;;;;13.61;42.43;101282.61;115284;1202;103017;-79
2021/03/28 11:39:35;;;;;;;7.93;4.23;;;;;;;13.75;42.91;101282.22;115585;1199;102084;-79
2021/03/28 11:42:24;;;;;;;6.17;4.47;;;;;;;13.81;42.40;101282.04;115816;1200;103024;-81
2021/03/28 11:45:00;;;;;;;7.70;3.50;;;;;;;13.87;42.09;101276.64;115552;1194;103011;-80
2021/03/28 11:47:39;;;;;;;5.93;3.50;;;;;;;13.84;41.96;101267.10;115754;1199;103021;-80
2021/03/28 11:50:15;;;;;;;6.27;3.80;;;;;;;13.99;42.15;101278.88;115811;1196;101799;-79
2021/03/28 11:53:03;;;;;;;6.37;3.43;;;;;;;14.08;40.82;101275.99;115595;1196;102033;-80
2021/03/28 11:55:51;;;;;;;5.87;3.27;;;;;;;13.88;40.77;101273.11;115477;1200;102587;-80
2021/03/28 11:58:25;;;;;;;6.40;3.60;;;;;;;13.77;40.75;101275.17;115572;1199;102816;-80
2021/03/28 12:00:59;;;;;;;7.53;3.90;;;;;;;13.70;41.06;101274.50;115511;1196;103110;-78
2021/03/28 12:03:43;;;;;;;6.60;4.05;;;;;;;13.50;40.46;101274.20;115431;1196;103047;-79
2021/03/28 12:06:17;;;;;;;6.90;3.63;;;;;;;13.46;40.85;101272.55;115400;1196;103179;-79
2021/03/28 12:08:44;;;;;;;7.93;4.30;;;;;;;13.60;41.09;101279.13;115663;1198;103143;-80
2021/03/28 12:11:33;;;;;;;8.70;4.13;;;;;;;13.57;40.34;101273.98;115437;1198;103134;-80
2021/03/28 12:14:22;;;;;;;7.70;4.30;;;;;;;13.18;40.59;101281.17;115366;1200;102931;-80
2021/03/28 12:17:08;;;;;;;8.87;3.80;;;;;;;12.95;41.11;101278.27;115514;1199;101914;-79
2021/03/28 12:19:59;;;;;;;7.30;3.90;;;;;;;12.97;41.09;101260.75;115381;1198;103235;-80
2021/03/28 12:22:41;;;;;;;7.23;4.07;;;;;;;13.16;40.71;101261.98;115353;1196;103008;-80
2021/03/28 12:25:12;;;;;;;6.07;4.10;;;;;;;13.03;40.20;101270.20;115430;1199;102823;-79
2021/03/28 12:27:56;;;;;;;7.45;4.55;;;;;;;13.10;40.10;101269.13;115557;1198;103006;-79
2021/03/28 12:30:32;;;;;;;8.20;4.73;;;;;;;13.17;39.13;101261.08;115393;1200;103066;-79
2021/03/28 12:33:16;;;;;;;5.83;4.17;;;;;;;13.20;39.39;101253.17;115405;1199;101450;-79
2021/03/28 12:35:47;;;;;;;7.87;5.30;;;;;;;13.04;38.93;101270.16;115480;1197;103034;-80
2021/03/28 12:38:27;;;;;;;7.63;4.57;;;;;;;12.86;40.02;101268.01;115695;1198;102999;-79
2021/03/28 12:41:13;;;;;;;6.23;4.50;;;;;;;12.92;39.63;101273.94;115614;1196;103133;-79
2021/03/28 12:43:51;;;;;;;6.90;4.70;;;;;;;12.87;39.69;101265.34;115423;1196;103082;-79
2021/03/28 12:46:24;;;;;;;7.53;4.43;;;;;;;12.81;40.19;101268.13;115447;1197;103087;-79